createdAt,value
2023-04-28T00:00:07.870Z,98982.84
2023-04-28T00:02:34.684Z,98994.91
2023-04-28T00:05:01.596Z,98989.63
2023-04-28T00:07:28.424Z,98989.63
2023-04-28T00:09:56.932Z,98990.69
2023-04-28T00:12:23.819Z,98977.84
2023-04-28T00:14:50.489Z,98976.97
2023-04-28T00:17:17.350Z,98973.84
2023-04-28T00:19:45.116Z,98976.56
2023-04-28T00:22:11.828Z,98977.84
2023-04-28T00:24:38.391Z,98968.44
2023-04-28T00:27:05.006Z,98977.22
2023-04-28T00:29:31.632Z,98969.28
2023-04-28T00:31:58.326Z,98963.91
2023-04-28T00:34:24.992Z,98953.59
2023-04-28T00:36:51.640Z,98955.16
2023-04-28T00:39:18.627Z,98953.81
2023-04-28T00:41:45.255Z,98953.72
2023-04-28T00:44:11.862Z,98966.03
2023-04-28T00:46:38.646Z,98958.34
2023-04-28T00:49:05.969Z,98956.13
2023-04-28T00:51:33.883Z,98953.41
2023-04-28T00:54:01.053Z,98950.44
2023-04-28T00:56:31.279Z,98958.66
2023-04-28T00:58:58.671Z,98960.69
2023-04-28T01:01:25.817Z,98950.03
2023-04-28T01:03:53.096Z,98958.16
2023-04-28T01:06:20.499Z,98953.81
2023-04-28T01:08:49.373Z,98944.13
2023-04-28T01:11:16.308Z,98943.50
2023-04-28T01:13:42.972Z,98937.91
2023-04-28T01:16:09.685Z,98933.47
2023-04-28T01:18:36.634Z,98930.63
2023-04-28T01:21:04.563Z,98934.00
2023-04-28T01:23:31.294Z,98937.81
2023-04-28T01:25:58.421Z,98936.31
2023-04-28T01:28:25.084Z,98924.09
2023-04-28T01:30:51.896Z,98924.72
2023-04-28T01:33:18.555Z,98925.78
2023-04-28T01:35:45.146Z,98914.38
2023-04-28T01:38:11.899Z,98913.44
2023-04-28T01:40:38.634Z,98904.16
2023-04-28T01:43:05.335Z,98897.94
2023-04-28T01:45:31.952Z,98897.00
2023-04-28T01:47:58.640Z,98891.22
2023-04-28T01:50:25.441Z,98894.38
2023-04-28T01:52:52.072Z,98896.69
2023-04-28T01:55:18.713Z,98895.75
2023-04-28T01:57:45.446Z,98888.28
2023-04-28T02:00:12.300Z,98886.38
2023-04-28T02:02:39.024Z,98886.25
2023-04-28T02:05:06.333Z,98885.97
2023-04-28T02:07:33.036Z,98881.41
2023-04-28T02:09:59.703Z,98873.72
2023-04-28T02:12:26.352Z,98879.00
2023-04-28T02:14:53.285Z,98888.34
2023-04-28T02:17:19.932Z,98874.44
2023-04-28T02:19:46.654Z,98875.19
2023-04-28T02:22:13.321Z,98881.19
2023-04-28T02:24:40.010Z,98876.34
2023-04-28T02:27:06.654Z,98868.44
2023-04-28T02:29:33.294Z,98885.97
2023-04-28T02:32:00.170Z,98864.03
2023-04-28T02:34:26.972Z,98860.03
2023-04-28T02:36:53.694Z,98860.97
2023-04-28T02:39:22.076Z,98862.66
2023-04-28T02:41:48.739Z,98856.41
2023-04-28T02:44:15.911Z,98859.59
2023-04-28T02:46:42.765Z,98864.31
2023-04-28T02:49:09.463Z,98866.56
2023-04-28T02:51:36.216Z,98850.44
2023-04-28T02:54:02.976Z,98848.75
2023-04-28T02:56:33.080Z,98857.50
2023-04-28T02:58:59.730Z,98855.19
2023-04-28T03:01:26.908Z,98840.00
2023-04-28T03:03:53.876Z,98837.75
2023-04-28T03:06:20.540Z,98827.66
2023-04-28T03:08:47.260Z,98821.97
2023-04-28T03:11:13.882Z,98810.94
2023-04-28T03:13:40.598Z,98814.09
2023-04-28T03:16:08.089Z,98817.91
2023-04-28T03:18:35.011Z,98813.16
2023-04-28T03:21:01.720Z,98820.00
2023-04-28T03:23:28.460Z,98815.88
2023-04-28T03:25:55.108Z,98809.78
2023-04-28T03:28:22.053Z,98813.25
2023-04-28T03:30:48.725Z,98809.69
2023-04-28T03:33:15.457Z,98808.63
2023-04-28T03:35:42.037Z,98805.03
2023-04-28T03:38:08.677Z,98812.41
2023-04-28T03:40:35.583Z,98798.72
2023-04-28T03:43:03.971Z,98802.94
2023-04-28T03:45:31.646Z,98797.66
2023-04-28T03:47:58.393Z,98795.97
2023-04-28T03:50:26.699Z,98797.44
2023-04-28T03:52:53.694Z,98795.97
2023-04-28T03:55:20.369Z,98785.44
2023-04-28T03:57:47.020Z,98785.63
2023-04-28T04:00:14.109Z,98782.06
2023-04-28T04:02:40.896Z,98780.38
2023-04-28T04:05:08.046Z,98782.28
2023-04-28T04:07:34.908Z,98777.22
2023-04-28T04:10:03.899Z,98781.97
2023-04-28T04:12:31.252Z,98781.75
2023-04-28T04:14:57.877Z,98784.63
2023-04-28T04:17:24.620Z,98778.28
2023-04-28T04:19:51.318Z,98776.63
2023-04-28T04:22:18.019Z,98780.81
2023-04-28T04:24:44.736Z,98769.31
2023-04-28T04:27:11.398Z,98777.22
2023-04-28T04:29:43.362Z,98771.94
2023-04-28T04:32:09.966Z,98773.97
2023-04-28T04:34:36.791Z,98771.22
2023-04-28T04:37:03.385Z,98784.72
2023-04-28T04:39:30.099Z,98783.13
2023-04-28T04:41:56.701Z,98775.97
2023-04-28T04:44:23.362Z,98770.50
2023-04-28T04:46:50.016Z,98766.88
2023-04-28T04:49:17.345Z,98756.59
2023-04-28T04:51:44.004Z,98748.69
2023-04-28T04:54:10.600Z,98758.03
2023-04-28T04:56:37.568Z,98756.16
2023-04-28T04:59:04.185Z,98758.03
2023-04-28T05:01:31.062Z,98765.66
2023-04-28T05:03:57.852Z,98767.03
2023-04-28T05:06:24.698Z,98765.44
2023-04-28T05:08:51.275Z,98759.97
2023-04-28T05:11:18.052Z,98761.22
2023-04-28T05:13:44.706Z,98749.44
2023-04-28T05:16:11.369Z,98760.06
2023-04-28T05:18:38.046Z,98746.50
2023-04-28T05:21:04.743Z,98752.16
2023-04-28T05:23:31.359Z,98757.09
2023-04-28T05:25:58.084Z,98748.97
2023-04-28T05:28:24.761Z,98751.09
2023-04-28T05:30:51.485Z,98753.22
2023-04-28T05:33:18.051Z,98756.16
2023-04-28T05:35:44.740Z,98757.84
2023-04-28T05:38:14.489Z,98757.59
2023-04-28T05:40:41.172Z,98755.41
2023-04-28T05:43:07.843Z,98753.63
2023-04-28T05:45:35.220Z,98746.25
2023-04-28T05:48:05.272Z,98744.38
2023-04-28T05:50:32.431Z,98749.19
2023-04-28T05:52:59.395Z,98752.25
2023-04-28T05:55:26.976Z,98751.09
2023-04-28T05:57:54.538Z,98747.28
2023-04-28T06:00:22.261Z,98746.34
2023-04-28T06:02:49.281Z,98740.34
2023-04-28T06:05:16.669Z,98737.84
2023-04-28T06:07:43.675Z,98744.81
2023-04-28T06:10:10.956Z,98744.38
2023-04-28T06:12:37.656Z,98727.06
2023-04-28T06:15:05.566Z,98722.41
2023-04-28T06:17:33.497Z,98724.31
2023-04-28T06:20:00.511Z,98725.03
2023-04-28T06:22:27.243Z,98729.41
2023-04-28T06:24:53.983Z,98721.06
2023-04-28T06:27:20.684Z,98720.84
2023-04-28T06:29:47.252Z,98722.09
2023-04-28T06:32:13.981Z,98721.00
2023-04-28T06:34:40.654Z,98719.22
2023-04-28T06:37:07.271Z,98720.59
2023-04-28T06:39:33.896Z,98723.31
2023-04-28T06:42:02.401Z,98731.00
2023-04-28T06:44:29.036Z,98730.78
2023-04-28T06:46:55.804Z,98735.41
2023-04-28T06:49:22.468Z,98720.41
2023-04-28T06:51:49.052Z,98728.16
2023-04-28T06:54:16.852Z,98726.50
2023-04-28T06:56:43.846Z,98725.09
2023-04-28T06:59:10.491Z,98716.16
2023-04-28T07:01:37.378Z,98714.28
2023-04-28T07:04:04.320Z,98713.63
2023-04-28T07:06:32.503Z,98714.84
2023-04-28T07:08:59.204Z,98705.72
2023-04-28T07:11:25.896Z,98714.38
2023-04-28T07:13:52.486Z,98706.69
2023-04-28T07:16:19.313Z,98710.91
2023-04-28T07:18:46.261Z,98715.59
2023-04-28T07:21:13.034Z,98714.66
2023-04-28T07:23:42.549Z,98722.84
2023-04-28T07:26:11.485Z,98726.19
2023-04-28T07:29:02.822Z,98734.56
2023-04-28T07:31:30.468Z,98731.94
2023-04-28T07:33:57.178Z,98735.41
2023-04-28T07:36:23.956Z,98726.41
2023-04-28T07:38:51.244Z,98728.59
2023-04-28T07:41:19.037Z,98715.72
2023-04-28T07:43:45.989Z,98716.94
2023-04-28T07:46:13.287Z,98720.41
2023-04-28T07:48:40.020Z,98720.19
2023-04-28T07:51:07.302Z,98716.34
2023-04-28T07:53:34.378Z,98707.69
2023-04-28T07:56:01.733Z,98701.94
2023-04-28T07:58:28.636Z,98694.38
2023-04-28T08:00:55.494Z,98698.94
2023-04-28T08:03:22.626Z,98700.50
2023-04-28T08:05:49.602Z,98698.94
2023-04-28T08:08:16.222Z,98697.88
2023-04-28T08:10:43.927Z,98716.34
2023-04-28T08:13:10.817Z,98714.19
2023-04-28T08:15:37.587Z,98713.72
2023-04-28T08:18:04.491Z,98693.16
2023-04-28T08:20:32.711Z,98689.59
2023-04-28T08:22:59.432Z,98696.66
2023-04-28T08:25:26.377Z,98691.16
2023-04-28T08:27:54.445Z,98694.84
2023-04-28T08:30:22.305Z,98680.09
2023-04-28T08:32:49.083Z,98670.25
2023-04-28T08:35:16.015Z,98673.84
2023-04-28T08:37:43.075Z,98662.56
2023-04-28T08:40:10.399Z,98655.59
2023-04-28T08:42:38.265Z,98646.19
2023-04-28T08:45:06.284Z,98651.22
2023-04-28T08:47:38.482Z,98659.13
2023-04-28T08:50:08.077Z,98660.88
2023-04-28T08:52:36.265Z,98660.00
2023-04-28T08:55:13.131Z,98654.59
2023-04-28T08:57:43.146Z,98660.00
2023-04-28T09:00:11.191Z,98655.16
2023-04-28T09:02:38.586Z,98650.19
2023-04-28T09:05:08.540Z,98648.84
2023-04-28T09:07:36.563Z,98648.34
2023-04-28T09:10:22.564Z,98655.66
2023-04-28T09:12:52.656Z,98654.03
2023-04-28T09:15:45.694Z,98646.94
2023-04-28T09:18:15.651Z,98652.22
2023-04-28T09:20:42.497Z,98654.38
2023-04-28T09:23:22.779Z,98651.38
2023-04-28T09:25:59.860Z,98644.69
2023-04-28T09:28:26.566Z,98640.91
2023-04-28T09:30:54.740Z,98632.34
2023-04-28T09:33:22.482Z,98635.19
2023-04-28T09:35:49.341Z,98639.00
2023-04-28T09:38:17.105Z,98642.09
2023-04-28T09:41:01.164Z,98646.25
2023-04-28T09:43:27.903Z,98632.97
2023-04-28T09:45:56.194Z,98636.28
2023-04-28T09:48:31.991Z,98622.88
2023-04-28T09:51:09.105Z,98628.34
2023-04-28T09:53:36.617Z,98621.13
2023-04-28T09:56:05.384Z,98625.44
2023-04-28T09:58:35.356Z,98627.13
2023-04-28T10:01:02.371Z,98630.75
2023-04-28T10:03:30.952Z,98624.34
2023-04-28T10:06:21.049Z,98619.44
2023-04-28T10:08:51.262Z,98622.81
2023-04-28T10:11:18.118Z,98622.53
2023-04-28T10:13:45.670Z,98612.16
2023-04-28T10:16:14.534Z,98618.16
2023-04-28T10:18:42.208Z,98619.38
2023-04-28T10:21:09.585Z,98616.91
2023-04-28T10:23:58.023Z,98614.72
2023-04-28T10:26:36.560Z,98624.09
2023-04-28T10:29:04.073Z,98614.63
2023-04-28T10:31:30.734Z,98622.06
2023-04-28T10:34:22.155Z,98615.09
2023-04-28T10:36:51.055Z,98609.06
2023-04-28T10:39:18.009Z,98613.41
2023-04-28T10:41:49.230Z,98599.22
2023-04-28T10:44:31.552Z,98598.53
2023-04-28T10:47:05.184Z,98588.53
2023-04-28T10:50:01.113Z,98580.22
2023-04-28T10:52:33.576Z,98578.16
2023-04-28T10:55:27.193Z,98568.69
2023-04-28T10:58:17.531Z,98569.38
2023-04-28T11:00:48.401Z,98560.19
2023-04-28T11:03:49.837Z,98562.16
2023-04-28T11:06:27.270Z,98558.66
2023-04-28T11:08:56.537Z,98558.31
2023-04-28T11:11:26.013Z,98559.03
2023-04-28T11:13:54.325Z,98559.28
2023-04-28T11:16:23.690Z,98556.88
2023-04-28T11:21:16.918Z,98557.03
2023-04-28T11:23:44.450Z,98559.69
2023-04-28T11:26:11.241Z,98560.22
2023-04-28T11:28:51.022Z,98559.66
2023-04-28T11:31:22.478Z,98555.97
2023-04-28T11:33:55.745Z,98547.97
2023-04-28T11:36:43.936Z,98546.78
2023-04-28T11:39:12.692Z,98547.03
2023-04-28T11:41:44.830Z,98551.81
2023-04-28T11:44:16.443Z,98547.63
2023-04-28T11:46:50.971Z,98548.59
2023-04-28T11:49:18.927Z,98541.84
2023-04-28T11:51:48.628Z,98538.56
2023-04-28T11:54:29.186Z,98537.63
2023-04-28T11:56:57.596Z,98535.16
2023-04-28T11:59:51.307Z,98532.41
2023-04-28T12:02:28.362Z,98523.91
2023-04-28T12:04:55.396Z,98519.34
2023-04-28T12:07:22.235Z,98514.50
2023-04-28T12:10:16.786Z,98516.91
2023-04-28T12:12:50.797Z,98505.22
2023-04-28T12:15:20.110Z,98505.66
2023-04-28T12:17:47.489Z,98515.78
2023-04-28T12:20:35.506Z,98513.63
2023-04-28T12:23:02.901Z,98502.16
2023-04-28T12:25:29.815Z,98501.56
2023-04-28T12:28:04.769Z,98500.25
2023-04-28T12:30:38.905Z,98495.38
2023-04-28T12:33:06.048Z,98495.03
2023-04-28T12:35:33.287Z,98498.06
2023-04-28T12:38:00.357Z,98506.25
2023-04-28T12:40:27.210Z,98498.16
2023-04-28T12:42:54.175Z,98498.19
2023-04-28T12:45:20.936Z,98491.28
2023-04-28T12:47:48.385Z,98492.88
2023-04-28T12:50:15.307Z,98488.66
2023-04-28T12:52:41.909Z,98482.84
2023-04-28T12:55:08.933Z,98489.22
2023-04-28T12:57:38.983Z,98485.72
2023-04-28T13:00:07.642Z,98479.25
2023-04-28T13:02:35.080Z,98481.59
2023-04-28T13:05:02.114Z,98482.00
2023-04-28T13:07:30.296Z,98467.81
2023-04-28T13:09:57.384Z,98470.78
2023-04-28T13:12:24.244Z,98472.59
2023-04-28T13:14:51.146Z,98472.59
2023-04-28T13:17:18.016Z,98473.13
2023-04-28T13:19:45.068Z,98469.28
2023-04-28T13:22:12.437Z,98460.06
2023-04-28T13:24:39.038Z,98462.25
2023-04-28T13:27:09.708Z,98470.53
2023-04-28T13:29:36.992Z,98464.50
2023-04-28T13:32:05.548Z,98454.94
2023-04-28T13:34:32.847Z,98461.09
2023-04-28T13:36:59.605Z,98457.75
2023-04-28T13:39:26.188Z,98456.69
2023-04-28T13:41:52.934Z,98456.59
2023-04-28T13:44:19.544Z,98442.78
2023-04-28T13:46:46.308Z,98444.47
2023-04-28T13:49:13.251Z,98442.84
2023-04-28T13:51:40.012Z,98450.78
2023-04-28T13:54:13.274Z,98443.81
2023-04-28T13:56:40.062Z,98446.47
2023-04-28T13:59:07.358Z,98455.63
2023-04-28T14:01:34.035Z,98455.50
2023-04-28T14:04:01.141Z,98451.00
2023-04-28T14:06:28.035Z,98447.66
2023-04-28T14:08:54.733Z,98444.47
2023-04-28T14:11:21.550Z,98439.31
2023-04-28T14:13:48.213Z,98442.81
2023-04-28T14:16:14.880Z,98441.97
2023-04-28T14:18:41.707Z,98440.97
2023-04-28T14:21:08.664Z,98439.44
2023-04-28T14:23:35.670Z,98441.78
2023-04-28T14:26:02.686Z,98447.78
2023-04-28T14:28:29.587Z,98434.59
2023-04-28T14:30:56.668Z,98433.28
2023-04-28T14:33:23.519Z,98432.47
2023-04-28T14:35:50.129Z,98433.56
2023-04-28T14:38:16.795Z,98426.56
2023-04-28T14:40:43.434Z,98420.38
2023-04-28T14:43:11.357Z,98419.09
2023-04-28T14:45:40.964Z,98420.09
2023-04-28T14:48:08.049Z,98422.22
2023-04-28T14:50:35.101Z,98416.38
2023-04-28T14:53:05.677Z,98415.72
2023-04-28T14:55:33.184Z,98415.59
2023-04-28T14:57:59.785Z,98408.28
2023-04-28T15:00:26.459Z,98411.56
2023-04-28T15:02:53.365Z,98411.22
2023-04-28T15:05:20.155Z,98402.78
2023-04-28T15:07:46.897Z,98403.44
2023-04-28T15:10:13.544Z,98392.78
2023-04-28T15:12:40.185Z,98404.78
2023-04-28T15:15:07.947Z,98395.63
2023-04-28T15:17:34.680Z,98405.13
2023-04-28T15:20:01.536Z,98403.28
2023-04-28T15:22:28.118Z,98408.47
2023-04-28T15:24:55.957Z,98404.13
2023-04-28T15:27:23.226Z,98407.28
2023-04-28T15:29:50.531Z,98418.41
2023-04-28T15:32:17.558Z,98411.41
2023-04-28T15:34:44.315Z,98408.91
2023-04-28T15:37:29.823Z,98407.75
2023-04-28T15:39:56.547Z,98411.75
2023-04-28T15:42:23.187Z,98413.41
2023-04-28T15:44:50.434Z,98413.25
2023-04-28T15:47:17.674Z,98418.41
2023-04-28T15:49:44.302Z,98414.75
2023-04-28T15:52:11.429Z,98413.22
2023-04-28T15:54:39.583Z,98416.06
2023-04-28T15:57:06.533Z,98414.22
2023-04-28T15:59:33.541Z,98408.91
2023-04-28T16:02:00.259Z,98416.91
2023-04-28T16:04:27.007Z,98412.88
2023-04-28T16:06:55.435Z,98416.19
2023-04-28T16:09:22.075Z,98417.75
2023-04-28T16:11:48.707Z,98409.09
2023-04-28T16:14:15.591Z,98413.22
2023-04-28T16:16:42.384Z,98410.41
2023-04-28T16:19:10.004Z,98416.38
2023-04-28T16:21:36.758Z,98416.44
2023-04-28T16:24:04.512Z,98417.41
2023-04-28T16:26:31.256Z,98411.75
2023-04-28T16:28:57.796Z,98414.09
2023-04-28T16:31:24.443Z,98404.09
2023-04-28T16:33:51.149Z,98397.56
2023-04-28T16:36:17.896Z,98400.56
2023-04-28T16:38:46.568Z,98414.53
2023-04-28T16:41:13.355Z,98409.97
2023-04-28T16:43:39.997Z,98408.00
2023-04-28T16:46:07.566Z,98408.50
2023-04-28T16:48:34.330Z,98400.53
2023-04-28T16:51:01.140Z,98398.25
2023-04-28T16:53:27.741Z,98404.75
2023-04-28T16:55:54.339Z,98392.44
2023-04-28T16:58:21.172Z,98380.44
2023-04-28T17:00:48.088Z,98381.97
2023-04-28T17:03:14.714Z,98381.47
2023-04-28T17:05:41.547Z,98376.63
2023-04-28T17:08:08.156Z,98375.97
2023-04-28T17:10:38.003Z,98368.44
2023-04-28T17:13:04.944Z,98364.28
2023-04-28T17:15:31.641Z,98370.78
2023-04-28T17:17:58.299Z,98372.44
2023-04-28T17:20:25.011Z,98373.94
2023-04-28T17:22:52.832Z,98363.13
2023-04-28T17:25:22.407Z,98346.94
2023-04-28T17:27:49.243Z,98351.63
2023-04-28T17:30:16.177Z,98358.09
2023-04-28T17:32:42.825Z,98365.41
2023-04-28T17:35:09.494Z,98373.44
2023-04-28T17:37:37.237Z,98373.59
2023-04-28T17:40:04.723Z,98373.59
2023-04-28T17:42:31.935Z,98370.75
2023-04-28T17:44:58.855Z,98358.41
2023-04-28T17:47:25.649Z,98358.28
2023-04-28T17:49:52.436Z,98362.41
2023-04-28T17:52:19.143Z,98357.25
2023-04-28T17:54:45.849Z,98364.41
2023-04-28T17:57:13.206Z,98360.44
2023-04-28T17:59:40.717Z,98363.06
2023-04-28T18:02:11.578Z,98367.88
2023-04-28T18:04:38.691Z,98366.22
2023-04-28T18:07:07.841Z,98377.38
2023-04-28T18:09:34.472Z,98370.34
2023-04-28T18:12:03.177Z,98379.47
2023-04-28T18:14:30.318Z,98384.28
2023-04-28T18:16:57.732Z,98387.09
2023-04-28T18:19:27.557Z,98382.59
2023-04-28T18:21:58.171Z,98386.16
2023-04-28T18:24:24.936Z,98381.13
2023-04-28T18:26:51.608Z,98381.13
2023-04-28T18:29:21.268Z,98386.31
2023-04-28T18:31:48.065Z,98394.59
2023-04-28T18:34:14.739Z,98398.16
2023-04-28T18:36:41.347Z,98397.25
2023-04-28T18:39:11.302Z,98405.19
2023-04-28T18:41:39.486Z,98397.19
2023-04-28T18:44:06.292Z,98396.91
2023-04-28T18:46:33.736Z,98388.59
2023-04-28T18:49:00.370Z,98398.09
2023-04-28T18:51:27.122Z,98388.28
2023-04-28T18:53:53.718Z,98390.94
2023-04-28T18:56:21.900Z,98390.59
2023-04-28T18:58:48.533Z,98386.94
2023-04-28T19:01:18.378Z,98388.59
2023-04-28T19:03:45.280Z,98395.91
2023-04-28T19:06:12.131Z,98396.19
2023-04-28T19:08:39.398Z,98388.19
2023-04-28T19:11:09.640Z,98390.88
2023-04-28T19:13:37.612Z,98384.53
2023-04-28T19:16:05.048Z,98390.88
2023-04-28T19:18:33.195Z,98390.19
2023-04-28T19:21:04.743Z,98402.28
2023-04-28T19:23:32.723Z,98399.44
2023-04-28T19:25:59.972Z,98405.28
2023-04-28T19:28:26.832Z,98403.78
2023-04-28T19:30:54.623Z,98413.19
2023-04-28T19:33:28.003Z,98413.69
2023-04-28T19:35:55.206Z,98399.91
2023-04-28T19:38:23.338Z,98387.56
2023-04-28T19:40:51.019Z,98394.63
2023-04-28T19:43:18.141Z,98400.94
2023-04-28T19:45:46.643Z,98400.94
2023-04-28T19:48:14.601Z,98398.59
2023-04-28T19:50:42.129Z,98395.25
2023-04-28T19:53:09.437Z,98393.63
2023-04-28T19:55:36.894Z,98394.63
2023-04-28T19:58:04.053Z,98394.63
2023-04-28T20:00:32.475Z,98400.25
2023-04-28T20:03:00.004Z,98411.19
2023-04-28T20:05:27.033Z,98413.16
2023-04-28T20:07:56.103Z,98409.22
2023-04-28T20:10:23.428Z,98416.00
2023-04-28T20:12:50.038Z,98416.44
2023-04-28T20:15:18.489Z,98408.47
2023-04-28T20:17:46.097Z,98412.63
2023-04-28T20:20:12.979Z,98415.78
2023-04-28T20:22:41.176Z,98418.19
2023-04-28T20:25:10.493Z,98410.50
2023-04-28T20:27:37.524Z,98412.03
2023-04-28T20:30:04.953Z,98411.34
2023-04-28T20:32:31.644Z,98405.34
2023-04-28T20:34:58.304Z,98407.19
2023-04-28T20:37:26.500Z,98398.53
2023-04-28T20:39:53.552Z,98398.81
2023-04-28T20:42:20.300Z,98403.63
2023-04-28T20:44:46.956Z,98406.97
2023-04-28T20:47:14.025Z,98408.94
2023-04-28T20:49:40.687Z,98417.19
2023-04-28T20:52:07.488Z,98408.94
2023-04-28T20:54:36.134Z,98417.03
2023-04-28T20:57:04.726Z,98410.88
2023-04-28T20:59:32.752Z,98415.53
2023-04-28T21:02:00.012Z,98414.25
2023-04-28T21:04:28.232Z,98410.44
2023-04-28T21:06:55.641Z,98406.97
2023-04-28T21:09:25.244Z,98416.75
2023-04-28T21:11:52.489Z,98413.41
2023-04-28T21:14:19.252Z,98410.28
2023-04-28T21:16:46.039Z,98415.91
2023-04-28T21:19:12.933Z,98412.72
2023-04-28T21:21:39.555Z,98409.06
2023-04-28T21:24:08.031Z,98405.56
2023-04-28T21:26:35.898Z,98410.22
2023-04-28T21:29:03.204Z,98411.19
2023-04-28T21:31:30.716Z,98415.66
2023-04-28T21:33:57.631Z,98412.44
2023-04-28T21:36:24.387Z,98420.06
2023-04-28T21:38:51.014Z,98416.75
2023-04-28T21:41:17.689Z,98418.41
2023-04-28T21:43:44.406Z,98420.63
2023-04-28T21:46:11.441Z,98419.69
2023-04-28T21:48:38.601Z,98412.41
2023-04-28T21:51:05.413Z,98417.72
2023-04-28T21:53:32.109Z,98413.09
2023-04-28T21:55:58.767Z,98421.38
2023-04-28T21:58:25.466Z,98424.34
2023-04-28T22:00:52.418Z,98421.69
2023-04-28T22:03:19.886Z,98424.97
2023-04-28T22:05:47.016Z,98421.75
2023-04-28T22:08:14.278Z,98427.91
2023-04-28T22:10:40.988Z,98423.56
2023-04-28T22:13:07.706Z,98432.84
2023-04-28T22:15:34.455Z,98426.53
2023-04-28T22:18:01.220Z,98428.50
2023-04-28T22:20:28.047Z,98431.31
2023-04-28T22:22:54.761Z,98436.47
2023-04-28T22:25:21.609Z,98433.81
2023-04-28T22:27:48.355Z,98440.50
2023-04-28T22:30:15.666Z,98432.38
2023-04-28T22:32:47.272Z,98438.53
2023-04-28T22:35:14.753Z,98432.94
2023-04-28T22:37:41.403Z,98433.06
2023-04-28T22:40:08.947Z,98439.88
2023-04-28T22:42:40.039Z,98435.59
2023-04-28T22:45:07.198Z,98441.88
2023-04-28T22:47:34.624Z,98445.22
2023-04-28T22:50:04.061Z,98441.56
2023-04-28T22:52:32.331Z,98438.53
2023-04-28T22:54:59.062Z,98446.81
2023-04-28T22:57:25.986Z,98438.00
2023-04-28T22:59:52.953Z,98438.84
2023-04-28T23:02:20.465Z,98440.34
2023-04-28T23:04:47.123Z,98442.03
2023-04-28T23:07:13.764Z,98441.34
2023-04-28T23:09:40.406Z,98445.81
2023-04-28T23:12:07.365Z,98436.03
2023-04-28T23:14:34.368Z,98423.56
2023-04-28T23:17:00.970Z,98425.94
2023-04-28T23:19:27.646Z,98424.97
2023-04-28T23:21:54.514Z,98425.38
2023-04-28T23:24:21.098Z,98438.00
2023-04-28T23:26:47.814Z,98430.47
2023-04-28T23:29:14.576Z,98433.88
2023-04-28T23:31:41.341Z,98433.63
2023-04-28T23:34:09.038Z,98434.22
2023-04-28T23:36:36.467Z,98440.81
2023-04-28T23:39:03.158Z,98428.81
2023-04-28T23:41:29.817Z,98434.84
2023-04-28T23:43:56.758Z,98435.00
2023-04-28T23:46:23.552Z,98443.28
2023-04-28T23:48:50.164Z,98441.94
2023-04-28T23:51:16.813Z,98439.69
2023-04-28T23:53:43.636Z,98446.44
2023-04-28T23:56:10.253Z,98438.06
2023-04-28T23:58:37.761Z,98442.53
